Portada
METAR-TAF:

METAR-TAF

Aeropuertos :

Melilla, España

Aeropuerto de Melilla

latitud: 35-17N, longitud: 002-57W, altitud: 47 m

Observación

El informe se hizo hace 19 minutos, a las 08:00 UTC
Viento 3 kt del noroeste, variando entre oeste-noroeste y norte
Temperatura 17°C
Humedad 63%
Presión 1026 hPa
Visibilidad 10 km o más
sin nubes por debajo de 1500 m y sin presencia de cumulonimbus.

METAR: GEML 280800Z 32003KT 290V360 CAVOK 17/10 Q1026

Hora: 10:19 (08:19 UTC)

Pronóstico

El informe se hizo hace 6 horas y 19 minutos, a las 02:00 UTC
Pronóstico válido del 28 a las 03 UTC al 29 a las 03 UTC
Viento 5 kt del este-noreste
Visibilidad 10 km o más
Escasas nubes a una altura de 1200 ft
Nubes dispersas a una altura de 2500 ft

TAF: GEML 280200Z 2803/2903 07005KT 9999 FEW012 SCT025 TX17/2814Z TN10/2806Z

Observaciones y pronósticos meteorológicos de más de 4000 aeropuertos (mensajes METAR y TAF).

Los puntos amarillos y rojos representan las estaciones disponibles.

Ponga el ratón en el punto deseado para ver el nombre de la estación.

Haga clic para ver las observaciones y los pronósticos meteorológicos.

Para cambiar el mapa : haga clic en los botones verdes con una cruz de color negro para hacer un zoom, en el botón verde con un guión para alejar o en las flechas verdes para mapas adyacentes.


METAR-TAF: